createdAt,value
2022-12-15T00:00:24.751Z,15.00
2022-12-15T00:03:11.537Z,14.45
2022-12-15T00:05:58.014Z,14.65
2022-12-15T00:08:44.233Z,17.02
2022-12-15T00:11:31.061Z,14.45
2022-12-15T00:14:17.210Z,15.68
2022-12-15T00:17:03.279Z,14.40
2022-12-15T00:19:49.910Z,18.48
2022-12-15T00:22:36.096Z,14.73
2022-12-15T00:25:22.902Z,14.57
2022-12-15T00:28:09.491Z,15.93
2022-12-15T00:31:02.138Z,16.90
2022-12-15T00:33:48.765Z,20.67
2022-12-15T00:36:35.294Z,18.63
2022-12-15T00:39:04.325Z,18.67
2022-12-15T00:41:32.657Z,18.13
2022-12-15T00:44:00.498Z,18.65
2022-12-15T00:46:46.711Z,19.73
2022-12-15T00:49:34.041Z,20.73
2022-12-15T00:52:20.783Z,20.33
2022-12-15T00:55:07.317Z,16.38
2022-12-15T00:57:53.680Z,20.55
2022-12-15T01:00:40.467Z,19.48
2022-12-15T01:03:39.649Z,20.17
2022-12-15T01:06:28.037Z,20.40
2022-12-15T01:09:15.326Z,21.45
2022-12-15T01:12:02.970Z,21.25
2022-12-15T01:14:50.014Z,20.27
2022-12-15T01:17:36.976Z,19.23
2022-12-15T01:20:18.566Z,18.27
2022-12-15T01:22:55.923Z,20.55
2022-12-15T01:25:25.526Z,20.75
2022-12-15T01:27:53.965Z,20.67
2022-12-15T01:30:26.965Z,20.58
2022-12-15T01:32:54.679Z,19.52
2022-12-15T01:35:23.130Z,19.60
2022-12-15T01:37:51.115Z,22.73
2022-12-15T01:40:39.868Z,21.75
2022-12-15T01:43:16.568Z,20.67
2022-12-15T01:45:47.460Z,20.65
2022-12-15T01:48:21.237Z,22.27
2022-12-15T01:51:10.948Z,21.25
2022-12-15T01:53:45.563Z,20.08
2022-12-15T01:56:18.394Z,23.48
2022-12-15T01:58:49.858Z,21.10
2022-12-15T02:01:18.060Z,18.00
2022-12-15T02:03:49.409Z,20.95
2022-12-15T02:06:22.158Z,20.48
2022-12-15T02:08:52.771Z,18.05
2022-12-15T02:11:26.476Z,19.42
2022-12-15T02:14:05.826Z,19.42
2022-12-15T02:16:57.359Z,19.77
2022-12-15T02:19:31.517Z,19.33
2022-12-15T02:22:19.489Z,20.30
2022-12-15T02:25:25.350Z,22.52
2022-12-15T02:28:02.229Z,22.15
2022-12-15T02:30:40.730Z,23.30
2022-12-15T02:33:30.299Z,22.38
2022-12-15T02:36:15.978Z,22.67
2022-12-15T02:38:45.306Z,24.65
2022-12-15T02:41:31.983Z,23.48
2022-12-15T02:44:03.365Z,24.00
2022-12-15T02:47:02.789Z,22.13
2022-12-15T02:49:30.745Z,22.23
2022-12-15T02:52:29.105Z,24.90
2022-12-15T02:54:58.533Z,27.50
2022-12-15T03:00:15.947Z,22.10
2022-12-15T03:05:15.112Z,19.17
2022-12-15T03:07:43.111Z,18.63
2022-12-15T03:10:13.442Z,19.55
2022-12-15T03:15:09.357Z,21.58
2022-12-15T03:17:38.695Z,20.63
2022-12-15T03:20:07.108Z,20.60
2022-12-15T03:22:35.998Z,21.42
2022-12-15T03:25:04.757Z,25.67
2022-12-15T03:27:33.420Z,27.63
2022-12-15T03:30:01.346Z,23.50
2022-12-15T03:32:30.233Z,23.20
2022-12-15T03:34:58.163Z,24.85
2022-12-15T03:37:25.798Z,22.95
2022-12-15T03:39:53.480Z,21.65
2022-12-15T03:42:41.054Z,22.70
2022-12-15T03:45:09.425Z,23.08
2022-12-15T03:47:42.167Z,23.88
2022-12-15T03:50:11.836Z,23.73
2022-12-15T03:52:39.988Z,22.33
2022-12-15T03:55:08.113Z,20.33
2022-12-15T03:57:36.063Z,21.13
2022-12-15T04:00:05.875Z,22.08
2022-12-15T04:02:45.024Z,18.92
2022-12-15T04:05:28.329Z,18.20
2022-12-15T04:07:58.559Z,21.80
2022-12-15T04:10:33.522Z,19.95
2022-12-15T04:13:07.965Z,17.63
2022-12-15T04:15:37.572Z,19.45
2022-12-15T04:18:07.679Z,15.90
2022-12-15T04:20:35.335Z,18.55
2022-12-15T04:23:03.289Z,20.05
2022-12-15T04:25:50.059Z,18.08
2022-12-15T04:28:36.400Z,19.55
2022-12-15T04:31:27.849Z,19.48
2022-12-15T04:34:23.810Z,18.77
2022-12-15T04:37:12.453Z,17.65
2022-12-15T04:40:02.622Z,18.75
2022-12-15T04:42:51.781Z,18.27
2022-12-15T04:45:41.919Z,17.92
2022-12-15T04:48:29.216Z,16.10
2022-12-15T04:51:15.714Z,16.23
2022-12-15T04:54:04.027Z,16.83
2022-12-15T04:56:52.053Z,15.80
2022-12-15T04:59:38.682Z,17.27
2022-12-15T05:02:24.780Z,15.32
2022-12-15T05:05:11.492Z,16.35
2022-12-15T05:07:58.211Z,19.17
2022-12-15T05:10:44.334Z,16.73
2022-12-15T05:13:30.740Z,17.50
2022-12-15T05:16:17.324Z,17.50
2022-12-15T05:19:03.630Z,16.20
2022-12-15T05:21:50.027Z,16.05
2022-12-15T05:24:36.785Z,16.27
2022-12-15T05:27:23.045Z,16.27
2022-12-15T05:30:09.360Z,17.35
2022-12-15T05:32:37.093Z,17.00
2022-12-15T05:35:05.558Z,18.58
2022-12-15T05:37:33.143Z,16.20
2022-12-15T05:40:01.403Z,17.92
2022-12-15T05:42:29.162Z,20.17
2022-12-15T05:44:56.827Z,26.65
2022-12-15T05:47:24.627Z,25.23
2022-12-15T05:49:52.704Z,22.23
2022-12-15T05:52:20.423Z,20.17
2022-12-15T05:54:48.269Z,19.25
2022-12-15T05:57:16.157Z,21.30
2022-12-15T05:59:43.948Z,18.80
2022-12-15T06:02:11.817Z,19.33
2022-12-15T06:04:39.890Z,20.42
2022-12-15T06:07:07.652Z,19.52
2022-12-15T06:09:35.742Z,18.33
2022-12-15T06:12:04.080Z,19.23
2022-12-15T06:14:32.022Z,29.85
2022-12-15T06:17:00.540Z,38.70
2022-12-15T06:19:28.407Z,24.50
2022-12-15T06:21:56.575Z,27.75
2022-12-15T06:24:26.521Z,27.35
2022-12-15T06:26:54.395Z,25.60
2022-12-15T06:29:22.724Z,26.30
2022-12-15T06:31:50.687Z,25.58
2022-12-15T06:34:18.768Z,29.25
2022-12-15T06:36:46.635Z,26.13
2022-12-15T06:39:15.654Z,25.58
2022-12-15T06:41:44.228Z,33.65
2022-12-15T06:44:16.780Z,31.48
2022-12-15T06:46:46.312Z,29.77
2022-12-15T06:49:15.274Z,29.83
2022-12-15T06:51:44.682Z,27.63
2022-12-15T06:54:13.289Z,27.10
2022-12-15T06:56:41.384Z,22.88
2022-12-15T06:59:10.859Z,23.27
2022-12-15T07:01:38.937Z,24.33
2022-12-15T07:04:07.101Z,24.08
2022-12-15T07:06:39.328Z,21.77
2022-12-15T07:09:12.664Z,21.65
2022-12-15T07:11:40.930Z,22.33
2022-12-15T07:14:10.580Z,20.52
2022-12-15T07:16:38.656Z,21.67
2022-12-15T07:19:06.748Z,21.40
2022-12-15T07:21:34.767Z,22.92
2022-12-15T07:24:03.155Z,21.77
2022-12-15T07:26:31.167Z,21.20
2022-12-15T07:28:58.756Z,22.90
2022-12-15T07:31:26.513Z,21.92
2022-12-15T07:33:55.040Z,17.55
2022-12-15T07:36:23.153Z,15.20
2022-12-15T07:38:51.996Z,18.80
2022-12-15T07:41:21.207Z,17.77
2022-12-15T07:43:49.930Z,19.02
2022-12-15T07:46:18.811Z,18.13
2022-12-15T07:48:50.496Z,18.08
2022-12-15T07:51:21.031Z,20.40
2022-12-15T07:53:50.826Z,23.33
2022-12-15T07:56:19.795Z,34.43
2022-12-15T07:58:48.102Z,20.83
2022-12-15T08:01:17.527Z,19.20
2022-12-15T08:03:46.071Z,19.27
2022-12-15T08:06:15.351Z,19.42
2022-12-15T08:08:50.480Z,19.15
2022-12-15T08:11:21.456Z,19.52
2022-12-15T08:14:02.562Z,19.23
2022-12-15T08:16:32.279Z,22.77
2022-12-15T08:19:00.314Z,25.52
2022-12-15T08:21:28.444Z,22.23
2022-12-15T08:23:56.580Z,120.05
2022-12-15T08:26:30.023Z,84.30
2022-12-15T08:31:52.768Z,49.75
2022-12-15T08:34:21.248Z,186.93
2022-12-15T08:36:49.407Z,74.47
2022-12-15T08:39:17.853Z,30.52
2022-12-15T08:41:46.001Z,23.25
2022-12-15T08:44:14.249Z,21.58
2022-12-15T08:46:42.168Z,22.13
2022-12-15T08:49:10.539Z,20.25
2022-12-15T08:51:38.742Z,25.35
2022-12-15T08:54:06.947Z,22.25
2022-12-15T08:56:36.486Z,22.35
2022-12-15T08:59:05.011Z,17.77
2022-12-15T09:01:33.245Z,20.00
2022-12-15T09:04:04.525Z,17.67
2022-12-15T09:06:34.937Z,21.30
2022-12-15T09:09:07.859Z,22.45
2022-12-15T09:11:36.128Z,23.33
2022-12-15T09:14:04.655Z,32.33
2022-12-15T09:16:32.708Z,22.70
2022-12-15T09:19:01.211Z,20.08
2022-12-15T09:21:31.284Z,27.67
2022-12-15T09:24:02.315Z,22.10
2022-12-15T09:26:32.832Z,22.02
2022-12-15T09:29:02.992Z,26.15
2022-12-15T09:31:37.954Z,30.45
2022-12-15T09:34:06.085Z,39.35
2022-12-15T09:36:33.961Z,23.65
2022-12-15T09:39:03.257Z,20.90
2022-12-15T09:41:33.533Z,19.35
2022-12-15T09:46:58.296Z,21.40
2022-12-15T09:49:46.097Z,24.55
2022-12-15T09:52:17.584Z,26.50
2022-12-15T09:54:46.865Z,37.95
2022-12-15T09:57:14.868Z,30.73
2022-12-15T10:00:12.419Z,31.80
2022-12-15T10:03:08.314Z,22.05
2022-12-15T10:06:06.862Z,45.53
2022-12-15T10:08:35.247Z,37.00
2022-12-15T10:11:15.726Z,37.83
2022-12-15T10:16:28.592Z,38.30
2022-12-15T10:19:08.908Z,41.88
2022-12-15T10:21:37.476Z,49.88
2022-12-15T10:24:51.868Z,42.33
2022-12-15T10:27:25.756Z,51.33
2022-12-15T10:30:02.451Z,60.45
2022-12-15T10:32:54.405Z,75.82
2022-12-15T10:35:28.503Z,62.22
2022-12-15T10:38:00.884Z,69.03
2022-12-15T10:40:57.112Z,86.53
2022-12-15T10:43:30.405Z,86.93
2022-12-15T10:46:11.537Z,42.55
2022-12-15T10:48:48.992Z,48.38
2022-12-15T10:51:37.809Z,54.17
2022-12-15T10:54:15.852Z,88.93
2022-12-15T10:56:52.798Z,83.93
2022-12-15T10:59:29.662Z,51.63
2022-12-15T11:02:23.094Z,48.35
2022-12-15T11:05:19.148Z,79.78
2022-12-15T11:07:49.962Z,33.53
2022-12-15T11:10:51.750Z,25.08
2022-12-15T11:13:24.857Z,25.63
2022-12-15T11:15:56.838Z,21.73
2022-12-15T11:18:43.959Z,20.73
2022-12-15T11:21:39.835Z,22.02
2022-12-15T11:24:13.649Z,28.08
2022-12-15T11:27:03.153Z,33.72
2022-12-15T11:29:45.473Z,37.23
2022-12-15T11:32:23.443Z,45.65
2022-12-15T11:34:53.652Z,38.80
2022-12-15T11:37:37.257Z,29.40
2022-12-15T11:40:05.282Z,24.90
2022-12-15T11:42:54.901Z,21.38
2022-12-15T11:45:34.685Z,18.17
2022-12-15T11:48:17.802Z,20.80
2022-12-15T11:50:53.969Z,25.52
2022-12-15T11:54:04.144Z,25.80
2022-12-15T11:56:37.544Z,26.83
2022-12-15T11:59:33.157Z,27.92
2022-12-15T12:02:22.463Z,32.58
2022-12-15T12:05:28.011Z,32.30
2022-12-15T12:08:17.618Z,33.38
2022-12-15T12:11:13.108Z,35.13
2022-12-15T12:13:53.101Z,33.22
2022-12-15T12:16:40.563Z,29.48
2022-12-15T12:19:19.104Z,27.13
2022-12-15T12:21:50.790Z,56.13
2022-12-15T12:24:42.162Z,41.28
2022-12-15T12:27:44.275Z,43.13
2022-12-15T12:30:22.936Z,66.63
2022-12-15T12:33:03.258Z,29.77
2022-12-15T12:36:10.473Z,90.03
2022-12-15T12:38:50.565Z,65.80
2022-12-15T12:41:47.073Z,44.28
2022-12-15T12:44:34.307Z,50.85
2022-12-15T12:47:16.470Z,63.05
2022-12-15T12:50:08.133Z,58.03
2022-12-15T12:52:38.274Z,60.92
2022-12-15T12:55:29.260Z,53.17
2022-12-15T12:57:57.300Z,71.22
2022-12-15T13:00:29.244Z,99.50
2022-12-15T13:03:15.045Z,72.68
2022-12-15T13:05:44.813Z,67.40
2022-12-15T13:10:43.973Z,51.03
2022-12-15T13:13:19.576Z,46.60
2022-12-15T13:19:10.734Z,48.20
2022-12-15T13:21:45.140Z,54.85
2022-12-15T13:24:58.952Z,53.28
2022-12-15T13:27:37.253Z,42.15
2022-12-15T13:30:08.177Z,39.85
2022-12-15T13:32:39.171Z,39.17
2022-12-15T13:35:13.105Z,44.65
2022-12-15T13:38:07.714Z,47.28
2022-12-15T13:40:36.000Z,47.28
2022-12-15T13:43:04.046Z,55.13
2022-12-15T13:45:38.446Z,55.03
2022-12-15T13:48:24.288Z,51.50
2022-12-15T13:51:34.742Z,54.25
2022-12-15T13:54:19.264Z,51.67
2022-12-15T13:57:15.610Z,51.47
2022-12-15T13:59:53.760Z,53.35
2022-12-15T14:02:31.326Z,52.80
2022-12-15T14:05:23.678Z,55.47
2022-12-15T14:08:00.758Z,56.88
2022-12-15T14:10:40.791Z,63.38
2022-12-15T14:13:16.270Z,67.47
2022-12-15T14:15:50.853Z,61.40
2022-12-15T14:18:46.210Z,58.05
2022-12-15T14:21:23.952Z,54.73
2022-12-15T14:24:28.492Z,51.42
2022-12-15T14:26:41.902Z,53.03
2022-12-15T14:29:10.721Z,54.47
2022-12-15T14:31:40.927Z,57.20
2022-12-15T14:36:43.608Z,54.72
2022-12-15T14:39:24.958Z,42.63
2022-12-15T14:41:54.675Z,47.75
2022-12-15T14:44:37.911Z,48.45
2022-12-15T14:47:17.296Z,47.50
2022-12-15T14:49:46.238Z,44.28
2022-12-15T14:52:28.795Z,44.38
2022-12-15T14:55:21.773Z,50.65
2022-12-15T14:57:53.776Z,48.13
2022-12-15T15:00:27.765Z,49.63
2022-12-15T15:03:16.048Z,46.10
2022-12-15T15:03:18.147Z,48.50
2022-12-15T15:05:57.865Z,47.65
2022-12-15T15:08:42.818Z,49.95
2022-12-15T15:11:39.606Z,52.15
2022-12-15T15:14:24.014Z,56.65
2022-12-15T15:17:14.096Z,53.30
2022-12-15T15:20:03.942Z,51.83
2022-12-15T15:22:40.368Z,54.53
2022-12-15T15:25:33.638Z,51.20
2022-12-15T15:28:13.602Z,45.63
2022-12-15T15:30:48.610Z,36.45
2022-12-15T15:33:18.415Z,38.33
2022-12-15T15:35:53.454Z,37.13
2022-12-15T15:38:27.395Z,49.13
2022-12-15T15:40:58.298Z,51.03
2022-12-15T15:43:27.749Z,58.97
2022-12-15T15:46:03.539Z,61.15
2022-12-15T15:48:38.430Z,60.35
2022-12-15T15:51:07.216Z,61.33
2022-12-15T15:53:36.401Z,56.95
2022-12-15T15:56:07.653Z,120.10
2022-12-15T15:58:36.533Z,117.35
2022-12-15T16:01:11.167Z,68.65
2022-12-15T16:03:41.570Z,64.78
2022-12-15T16:06:19.134Z,128.50
2022-12-15T16:08:54.431Z,84.35
2022-12-15T16:11:23.486Z,70.82
2022-12-15T16:13:51.368Z,58.15
2022-12-15T16:16:22.158Z,58.05
2022-12-15T16:18:50.156Z,59.00
2022-12-15T16:21:20.127Z,57.95
2022-12-15T16:23:49.252Z,59.08
2022-12-15T16:26:30.639Z,60.60
2022-12-15T16:28:59.165Z,59.45
2022-12-15T16:31:40.663Z,57.03
2022-12-15T16:34:09.369Z,54.42
2022-12-15T16:36:37.614Z,57.33
2022-12-15T16:39:32.012Z,57.20
2022-12-15T16:42:00.722Z,55.72
2022-12-15T16:44:32.063Z,54.30
2022-12-15T16:47:00.411Z,56.42
2022-12-15T16:49:35.137Z,57.42
2022-12-15T16:52:05.127Z,51.13
2022-12-15T16:54:32.960Z,50.75
2022-12-15T16:57:01.315Z,55.90
2022-12-15T16:59:34.214Z,63.88
2022-12-15T17:02:30.410Z,60.97
2022-12-15T17:04:58.590Z,57.38
2022-12-15T17:07:28.339Z,59.20
2022-12-15T17:09:56.939Z,63.13
2022-12-15T17:12:25.062Z,67.72
2022-12-15T17:14:53.142Z,54.70
2022-12-15T17:17:21.906Z,54.70
2022-12-15T17:22:39.011Z,63.15
2022-12-15T17:25:14.143Z,61.88
2022-12-15T17:27:43.169Z,57.53
2022-12-15T17:30:17.683Z,56.75
2022-12-15T17:32:47.187Z,55.65
2022-12-15T17:35:16.216Z,56.50
2022-12-15T17:37:45.158Z,44.85
2022-12-15T17:40:22.959Z,63.28
2022-12-15T17:42:51.759Z,62.10
2022-12-15T17:45:27.254Z,54.65
2022-12-15T17:47:56.498Z,70.25
2022-12-15T17:50:25.678Z,64.03
2022-12-15T17:52:53.896Z,55.20
2022-12-15T17:55:34.642Z,59.47
2022-12-15T17:58:03.692Z,67.63
2022-12-15T18:00:36.061Z,68.28
2022-12-15T18:03:04.779Z,72.53
2022-12-15T18:05:35.558Z,79.50
2022-12-15T18:08:12.031Z,84.85
2022-12-15T18:10:41.718Z,87.43
2022-12-15T18:13:18.794Z,86.82
2022-12-15T18:15:48.239Z,97.80
2022-12-15T18:18:18.440Z,92.57
2022-12-15T18:20:46.735Z,89.80
2022-12-15T18:23:25.168Z,87.75
2022-12-15T18:25:57.214Z,83.78
2022-12-15T18:28:31.624Z,87.30
2022-12-15T18:33:35.036Z,86.32
2022-12-15T18:36:03.199Z,89.40
2022-12-15T18:38:31.088Z,83.90
2022-12-15T18:41:01.422Z,82.50
2022-12-15T18:45:59.405Z,83.90
2022-12-15T18:48:33.302Z,87.28
2022-12-15T18:51:03.261Z,88.50
2022-12-15T18:53:39.122Z,82.78
2022-12-15T18:56:09.763Z,82.47
2022-12-15T19:01:09.459Z,54.93
2022-12-15T19:03:41.865Z,54.15
2022-12-15T19:06:24.001Z,47.97
2022-12-15T19:08:54.170Z,49.42
2022-12-15T19:11:31.564Z,41.83
2022-12-15T19:14:01.689Z,47.55
2022-12-15T19:16:53.468Z,82.50
2022-12-15T19:19:40.099Z,68.72
2022-12-15T19:22:30.465Z,60.88
2022-12-15T19:24:59.657Z,52.95
2022-12-15T19:27:28.072Z,50.30
2022-12-15T19:30:10.184Z,48.53
2022-12-15T19:32:43.981Z,49.08
2022-12-15T19:35:13.546Z,42.85
2022-12-15T19:37:45.188Z,42.97
2022-12-15T19:40:30.729Z,41.05
2022-12-15T19:43:00.675Z,43.08
2022-12-15T19:45:31.219Z,42.80
2022-12-15T19:48:00.679Z,40.03
2022-12-15T19:53:02.168Z,70.38
2022-12-15T19:55:34.206Z,64.63
2022-12-15T19:58:27.905Z,59.80
2022-12-15T20:01:04.607Z,55.15
2022-12-15T20:03:34.470Z,52.50
2022-12-15T20:06:04.644Z,49.20
2022-12-15T20:08:41.452Z,51.72
2022-12-15T20:11:21.434Z,49.83
2022-12-15T20:13:51.597Z,48.78
2022-12-15T20:16:23.305Z,49.30
2022-12-15T20:18:53.894Z,47.90
2022-12-15T20:21:23.655Z,45.92
2022-12-15T20:23:56.567Z,48.50
2022-12-15T20:26:26.521Z,45.20
2022-12-15T20:28:54.843Z,43.40
2022-12-15T20:31:24.074Z,40.60
2022-12-15T20:33:53.644Z,40.60
2022-12-15T20:36:28.438Z,37.08
2022-12-15T20:38:57.380Z,38.33
2022-12-15T20:41:28.196Z,37.88
2022-12-15T20:43:57.436Z,37.78
2022-12-15T20:46:28.914Z,43.70
2022-12-15T20:48:57.425Z,41.60
2022-12-15T20:51:29.581Z,47.03
2022-12-15T20:54:00.235Z,48.50
2022-12-15T20:56:29.154Z,48.45
2022-12-15T20:58:58.188Z,45.53
2022-12-15T21:01:30.917Z,43.55
2022-12-15T21:04:01.564Z,40.60
2022-12-15T21:06:31.122Z,44.83
2022-12-15T21:08:59.838Z,36.00
2022-12-15T21:11:31.615Z,38.22
2022-12-15T21:14:04.317Z,34.08
2022-12-15T21:16:33.212Z,41.90
2022-12-15T21:19:22.653Z,36.90
2022-12-15T21:21:54.882Z,40.90
2022-12-15T21:24:26.937Z,40.65
2022-12-15T21:26:57.380Z,40.30
2022-12-15T21:31:55.267Z,34.88
2022-12-15T21:34:23.383Z,42.28
2022-12-15T21:36:55.313Z,36.38
2022-12-15T21:39:33.873Z,41.42
2022-12-15T21:42:16.545Z,40.10
2022-12-15T21:44:45.529Z,46.17
2022-12-15T21:47:48.476Z,36.58
2022-12-15T21:50:18.980Z,45.75
2022-12-15T21:52:48.071Z,39.78
2022-12-15T21:55:18.228Z,46.28
2022-12-15T21:57:47.101Z,43.47
2022-12-15T22:00:17.923Z,49.50
2022-12-15T22:02:47.995Z,46.80
2022-12-15T22:05:21.823Z,44.15
2022-12-15T22:07:50.869Z,41.55
2022-12-15T22:10:19.617Z,41.17
2022-12-15T22:12:59.026Z,40.95
2022-12-15T22:15:29.707Z,41.10
2022-12-15T22:17:58.221Z,43.45
2022-12-15T22:20:26.382Z,56.28
2022-12-15T22:22:54.329Z,62.95
2022-12-15T22:25:25.150Z,74.13
2022-12-15T22:30:27.482Z,51.38
2022-12-15T22:32:55.489Z,76.35
2022-12-15T22:35:25.966Z,77.50
2022-12-15T22:40:44.031Z,74.43
2022-12-15T22:43:26.560Z,64.28
2022-12-15T22:45:55.483Z,72.60
2022-12-15T22:48:31.478Z,81.72
2022-12-15T22:51:00.458Z,85.03
2022-12-15T22:53:31.874Z,107.97
2022-12-15T22:56:04.818Z,104.05
2022-12-15T22:58:41.728Z,101.68
2022-12-15T23:01:10.557Z,86.30
2022-12-15T23:03:38.339Z,78.47
2022-12-15T23:06:06.301Z,61.47
2022-12-15T23:08:33.988Z,53.90
2022-12-15T23:11:20.388Z,54.70
2022-12-15T23:13:48.752Z,49.30
2022-12-15T23:16:22.610Z,52.50
2022-12-15T23:18:55.333Z,54.47
2022-12-15T23:21:25.011Z,80.25
2022-12-15T23:23:53.685Z,66.78
2022-12-15T23:26:24.033Z,61.70
2022-12-15T23:28:53.119Z,47.83
2022-12-15T23:31:23.538Z,47.00
2022-12-15T23:33:52.119Z,54.80
2022-12-15T23:36:20.495Z,41.63
2022-12-15T23:38:48.377Z,41.60
2022-12-15T23:41:18.731Z,33.97
2022-12-15T23:43:47.571Z,34.60
2022-12-15T23:46:15.796Z,40.35
2022-12-15T23:48:45.010Z,49.25
2022-12-15T23:51:18.467Z,45.80
2022-12-15T23:53:48.046Z,50.53
2022-12-15T23:56:22.625Z,63.88
2022-12-15T23:58:58.987Z,44.90
